createdAt,value
2022-09-21T00:00:03.061Z,87.45
2022-09-21T00:01:03.025Z,87.45
2022-09-21T00:02:03.139Z,87.24
2022-09-21T00:03:03.163Z,87.14
2022-09-21T00:04:03.238Z,87.14
2022-09-21T00:05:03.335Z,86.93
2022-09-21T00:06:03.396Z,86.83
2022-09-21T00:07:03.448Z,86.93
2022-09-21T00:08:03.527Z,86.73
2022-09-21T00:09:03.615Z,86.63
2022-09-21T00:10:03.723Z,86.52
2022-09-21T00:11:03.767Z,86.63
2022-09-21T00:12:03.842Z,86.73
2022-09-21T00:13:03.930Z,86.83
2022-09-21T00:14:04.008Z,86.93
2022-09-21T00:15:04.112Z,86.93
2022-09-21T00:16:04.194Z,86.93
2022-09-21T00:17:04.271Z,86.87
2022-09-21T00:18:04.371Z,86.77
2022-09-21T00:19:04.450Z,86.77
2022-09-21T00:20:04.556Z,86.66
2022-09-21T00:21:04.625Z,86.57
2022-09-21T00:22:04.719Z,86.57
2022-09-21T00:23:04.783Z,86.66
2022-09-21T00:24:04.863Z,86.57
2022-09-21T00:25:04.954Z,86.36
2022-09-21T00:26:05.021Z,86.15
2022-09-21T00:27:05.113Z,86.25
2022-09-21T00:28:05.165Z,86.25
2022-09-21T00:29:05.278Z,86.25
2022-09-21T00:30:05.365Z,86.30
2022-09-21T00:31:05.440Z,86.30
2022-09-21T00:32:05.550Z,86.50
2022-09-21T00:33:05.619Z,86.91
2022-09-21T00:34:05.790Z,87.02
2022-09-21T00:35:05.794Z,87.12
2022-09-21T00:36:05.870Z,87.02
2022-09-21T00:37:05.973Z,87.02
2022-09-21T00:38:06.030Z,86.91
2022-09-21T00:39:06.110Z,87.12
2022-09-21T00:40:06.321Z,87.12
2022-09-21T00:41:06.242Z,87.22
2022-09-21T00:42:06.301Z,87.22
2022-09-21T00:43:06.378Z,87.12
2022-09-21T00:44:06.433Z,87.12
2022-09-21T00:45:06.527Z,87.22
2022-09-21T00:46:06.647Z,87.32
2022-09-21T00:47:06.676Z,87.32
2022-09-21T00:48:06.725Z,87.32
2022-09-21T00:49:06.978Z,87.53
2022-09-21T00:50:06.885Z,87.43
2022-09-21T00:51:06.950Z,87.43
2022-09-21T00:52:07.005Z,87.32
2022-09-21T00:53:07.090Z,87.32
2022-09-21T00:54:07.140Z,87.43
2022-09-21T00:55:07.251Z,87.37
2022-09-21T00:56:07.296Z,87.67
2022-09-21T00:57:07.373Z,87.73
2022-09-21T00:58:07.425Z,87.53
2022-09-21T00:59:07.503Z,87.32
2022-09-21T01:00:07.575Z,87.22
2022-09-21T01:01:07.734Z,87.26
2022-09-21T01:02:07.761Z,87.16
2022-09-21T01:03:07.812Z,87.05
2022-09-21T01:04:07.964Z,87.77
2022-09-21T01:05:08.006Z,87.73
2022-09-21T01:06:08.051Z,87.63
2022-09-21T01:07:08.130Z,87.43
2022-09-21T01:08:08.188Z,87.43
2022-09-21T01:09:08.266Z,87.43
2022-09-21T01:10:08.364Z,87.53
2022-09-21T01:11:08.446Z,87.53
2022-09-21T01:12:08.498Z,87.43
2022-09-21T01:13:08.583Z,87.43
2022-09-21T01:14:08.632Z,87.43
2022-09-21T01:15:08.728Z,87.32
2022-09-21T01:16:08.808Z,87.26
2022-09-21T01:17:08.866Z,87.16
2022-09-21T01:18:08.927Z,87.16
2022-09-21T01:19:09.023Z,86.95
2022-09-21T01:20:09.083Z,87.05
2022-09-21T01:21:09.164Z,87.26
2022-09-21T01:22:09.220Z,87.46
2022-09-21T01:23:09.304Z,87.57
2022-09-21T01:24:09.376Z,87.57
2022-09-21T01:25:09.480Z,87.67
2022-09-21T01:26:09.534Z,87.57
2022-09-21T01:27:09.622Z,87.46
2022-09-21T01:28:09.671Z,87.46
2022-09-21T01:29:09.778Z,87.37
2022-09-21T01:30:09.943Z,87.26
2022-09-21T01:31:09.978Z,87.37
2022-09-21T01:32:10.011Z,87.16
2022-09-21T01:33:10.093Z,87.16
2022-09-21T01:34:10.159Z,87.05
2022-09-21T01:35:10.243Z,87.05
2022-09-21T01:36:10.304Z,87.05
2022-09-21T01:37:10.410Z,86.85
2022-09-21T01:38:10.469Z,86.95
2022-09-21T01:39:10.555Z,86.75
2022-09-21T01:40:10.751Z,86.75
2022-09-21T01:41:10.716Z,86.44
2022-09-21T01:42:10.782Z,86.44
2022-09-21T01:43:10.878Z,86.54
2022-09-21T01:44:10.941Z,86.54
2022-09-21T01:45:11.059Z,86.65
2022-09-21T01:46:11.126Z,86.75
2022-09-21T01:47:11.222Z,86.95
2022-09-21T01:48:11.288Z,87.05
2022-09-21T01:49:11.392Z,87.30
2022-09-21T01:50:11.551Z,87.40
2022-09-21T01:51:11.533Z,87.61
2022-09-21T01:52:11.614Z,87.71
2022-09-21T01:53:11.688Z,87.71
2022-09-21T01:54:11.799Z,87.71
2022-09-21T01:55:11.890Z,87.71
2022-09-21T01:56:11.949Z,87.61
2022-09-21T01:57:12.001Z,87.51
2022-09-21T01:58:12.101Z,87.61
2022-09-21T01:59:12.183Z,87.71
2022-09-21T02:00:12.302Z,87.82
2022-09-21T02:01:12.357Z,88.02
2022-09-21T02:02:12.465Z,88.02
2022-09-21T02:03:12.513Z,87.82
2022-09-21T02:04:12.660Z,87.61
2022-09-21T02:05:12.696Z,87.51
2022-09-21T02:06:12.766Z,87.30
2022-09-21T02:07:12.853Z,86.89
2022-09-21T02:08:12.931Z,86.68
2022-09-21T02:09:12.990Z,86.68
2022-09-21T02:10:13.114Z,86.79
2022-09-21T02:11:13.160Z,86.83
2022-09-21T02:12:16.928Z,86.93
2022-09-21T02:13:13.340Z,87.24
2022-09-21T02:14:13.411Z,87.04
2022-09-21T02:15:13.512Z,87.04
2022-09-21T02:16:13.620Z,87.24
2022-09-21T02:17:13.644Z,87.24
2022-09-21T02:18:13.744Z,87.24
2022-09-21T02:19:13.831Z,87.69
2022-09-21T02:20:13.955Z,87.79
2022-09-21T02:21:14.002Z,87.79
2022-09-21T02:22:14.077Z,87.79
2022-09-21T02:23:14.154Z,87.90
2022-09-21T02:24:14.230Z,88.10
2022-09-21T02:25:14.332Z,88.20
2022-09-21T02:26:14.408Z,88.62
2022-09-21T02:27:14.474Z,88.41
2022-09-21T02:28:14.546Z,88.96
2022-09-21T02:29:14.632Z,89.17
2022-09-21T02:30:14.821Z,89.79
2022-09-21T02:31:14.837Z,89.79
2022-09-21T02:32:14.863Z,89.38
2022-09-21T02:33:14.916Z,89.07
2022-09-21T02:34:15.006Z,89.07
2022-09-21T02:35:15.070Z,89.17
2022-09-21T02:36:15.155Z,89.07
2022-09-21T02:37:15.236Z,88.66
2022-09-21T02:38:15.318Z,88.35
2022-09-21T02:39:15.387Z,88.14
2022-09-21T02:40:15.519Z,88.14
2022-09-21T02:41:15.520Z,88.14
2022-09-21T02:42:15.597Z,87.84
2022-09-21T02:43:15.676Z,87.84
2022-09-21T02:44:15.753Z,87.73
2022-09-21T02:45:15.862Z,87.84
2022-09-21T02:46:15.953Z,87.84
2022-09-21T02:47:16.007Z,87.94
2022-09-21T02:48:16.095Z,88.04
2022-09-21T02:49:16.172Z,87.94
2022-09-21T02:50:16.275Z,87.84
2022-09-21T02:51:16.356Z,87.73
2022-09-21T02:52:16.429Z,87.73
2022-09-21T02:53:16.520Z,87.63
2022-09-21T02:54:16.621Z,87.73
2022-09-21T02:55:16.701Z,87.84
2022-09-21T02:56:16.782Z,87.84
2022-09-21T02:57:16.859Z,87.84
2022-09-21T02:58:16.952Z,87.94
2022-09-21T02:59:17.025Z,87.94
2022-09-21T03:00:17.450Z,88.04
2022-09-21T03:01:17.227Z,87.94
2022-09-21T03:02:17.289Z,87.94
2022-09-21T03:03:17.354Z,87.94
2022-09-21T03:04:17.429Z,87.94
2022-09-21T03:05:17.528Z,87.84
2022-09-21T03:06:17.586Z,87.63
2022-09-21T03:07:17.728Z,87.73
2022-09-21T03:08:17.725Z,87.52
2022-09-21T03:09:17.778Z,87.42
2022-09-21T03:10:17.905Z,87.32
2022-09-21T03:11:17.957Z,87.32
2022-09-21T03:12:18.029Z,87.26
2022-09-21T03:13:18.109Z,87.15
2022-09-21T03:14:18.217Z,87.05
2022-09-21T03:15:18.308Z,87.26
2022-09-21T03:16:18.430Z,87.36
2022-09-21T03:17:18.451Z,87.36
2022-09-21T03:18:18.562Z,87.26
2022-09-21T03:19:18.611Z,87.26
2022-09-21T03:20:18.727Z,87.46
2022-09-21T03:21:18.921Z,87.57
2022-09-21T03:22:18.876Z,87.46
2022-09-21T03:23:18.967Z,87.26
2022-09-21T03:24:19.044Z,87.15
2022-09-21T03:25:19.142Z,87.05
2022-09-21T03:26:19.198Z,86.95
2022-09-21T03:27:19.256Z,86.85
2022-09-21T03:28:19.360Z,86.64
2022-09-21T03:29:19.436Z,86.95
2022-09-21T03:30:19.531Z,87.26
2022-09-21T03:31:19.635Z,87.57
2022-09-21T03:32:19.655Z,87.26
2022-09-21T03:33:19.733Z,87.36
2022-09-21T03:34:19.822Z,87.05
2022-09-21T03:35:19.915Z,87.05
2022-09-21T03:36:19.993Z,86.99
2022-09-21T03:37:20.044Z,87.51
2022-09-21T03:38:20.128Z,87.51
2022-09-21T03:39:20.206Z,87.40
2022-09-21T03:40:20.350Z,87.26
2022-09-21T03:41:20.356Z,87.05
2022-09-21T03:42:20.432Z,86.74
2022-09-21T03:43:20.495Z,86.64
2022-09-21T03:44:20.583Z,86.54
2022-09-21T03:45:20.654Z,86.58
2022-09-21T03:46:20.786Z,86.68
2022-09-21T03:47:20.812Z,86.64
2022-09-21T03:48:20.901Z,86.37
2022-09-21T03:49:20.957Z,86.88
2022-09-21T03:50:21.078Z,87.09
2022-09-21T03:51:21.122Z,87.09
2022-09-21T03:52:21.219Z,86.88
2022-09-21T03:53:21.297Z,86.79
2022-09-21T03:54:21.401Z,86.88
2022-09-21T03:55:21.497Z,86.88
2022-09-21T03:56:21.580Z,86.68
2022-09-21T03:57:21.640Z,86.68
2022-09-21T03:58:21.738Z,86.58
2022-09-21T03:59:21.802Z,86.58
2022-09-21T04:00:22.005Z,86.79
2022-09-21T04:01:21.983Z,86.88
2022-09-21T04:02:22.115Z,86.88
2022-09-21T04:03:22.145Z,86.88
2022-09-21T04:04:22.243Z,86.88
2022-09-21T04:05:22.335Z,86.68
2022-09-21T04:06:22.394Z,86.88
2022-09-21T04:07:22.462Z,86.88
2022-09-21T04:08:22.562Z,86.68
2022-09-21T04:09:22.614Z,86.61
2022-09-21T04:10:22.744Z,86.93
2022-09-21T04:11:22.772Z,87.13
2022-09-21T04:12:22.861Z,87.54
2022-09-21T04:13:22.927Z,87.65
2022-09-21T04:14:23.007Z,87.60
2022-09-21T04:15:23.117Z,87.60
2022-09-21T04:16:23.175Z,87.51
2022-09-21T04:17:23.250Z,87.30
2022-09-21T04:18:23.328Z,87.09
2022-09-21T04:19:23.406Z,86.99
2022-09-21T04:20:23.546Z,86.79
2022-09-21T04:21:23.588Z,86.68
2022-09-21T04:22:23.668Z,86.68
2022-09-21T04:23:23.743Z,86.79
2022-09-21T04:24:23.847Z,86.68
2022-09-21T04:25:23.928Z,86.58
2022-09-21T04:26:23.997Z,86.58
2022-09-21T04:27:24.059Z,86.47
2022-09-21T04:28:24.148Z,86.68
2022-09-21T04:29:24.204Z,87.03
2022-09-21T04:30:24.326Z,87.13
2022-09-21T04:31:24.460Z,87.13
2022-09-21T04:32:24.477Z,87.24
2022-09-21T04:33:24.528Z,87.24
2022-09-21T04:34:24.633Z,87.24
2022-09-21T04:35:24.717Z,87.24
2022-09-21T04:36:24.795Z,87.17
2022-09-21T04:37:24.877Z,87.17
2022-09-21T04:38:24.978Z,87.27
2022-09-21T04:39:25.067Z,87.17
2022-09-21T04:40:25.234Z,87.27
2022-09-21T04:41:25.214Z,87.27
2022-09-21T04:42:25.306Z,87.48
2022-09-21T04:43:25.381Z,87.48
2022-09-21T04:44:25.467Z,87.38
2022-09-21T04:45:25.568Z,87.27
2022-09-21T04:46:25.656Z,87.17
2022-09-21T04:47:25.710Z,87.27
2022-09-21T04:48:25.767Z,87.38
2022-09-21T04:49:25.848Z,87.48
2022-09-21T04:50:25.935Z,87.38
2022-09-21T04:51:26.012Z,87.48
2022-09-21T04:52:26.092Z,87.48
2022-09-21T04:53:26.189Z,87.38
2022-09-21T04:54:26.267Z,87.17
2022-09-21T04:55:26.375Z,87.17
2022-09-21T04:56:26.442Z,87.17
2022-09-21T04:57:26.518Z,87.27
2022-09-21T04:58:26.589Z,87.27
2022-09-21T04:59:26.680Z,87.17
2022-09-21T05:00:26.762Z,87.07
2022-09-21T05:01:26.868Z,87.07
2022-09-21T05:02:26.906Z,87.07
2022-09-21T05:03:27.104Z,87.07
2022-09-21T05:04:27.082Z,87.07
2022-09-21T05:05:27.186Z,86.76
2022-09-21T05:06:27.241Z,86.76
2022-09-21T05:07:27.317Z,86.76
2022-09-21T05:08:27.392Z,86.66
2022-09-21T05:09:27.489Z,86.55
2022-09-21T05:10:27.643Z,86.45
2022-09-21T05:11:27.649Z,86.35
2022-09-21T05:12:27.731Z,86.24
2022-09-21T05:13:27.806Z,86.24
2022-09-21T05:14:27.893Z,86.15
2022-09-21T05:15:28.042Z,86.10
2022-09-21T05:16:28.049Z,86.00
2022-09-21T05:17:28.142Z,85.79
2022-09-21T05:18:28.226Z,85.89
2022-09-21T05:19:28.319Z,86.04
2022-09-21T05:20:28.527Z,86.15
2022-09-21T05:21:28.493Z,86.35
2022-09-21T05:22:28.552Z,86.45
2022-09-21T05:23:28.639Z,86.66
2022-09-21T05:24:28.694Z,86.76
2022-09-21T05:25:28.804Z,86.66
2022-09-21T05:26:28.857Z,86.55
2022-09-21T05:27:28.964Z,86.55
2022-09-21T05:28:29.054Z,86.45
2022-09-21T05:29:29.134Z,86.55
2022-09-21T05:30:29.301Z,86.45
2022-09-21T05:31:29.374Z,86.55
2022-09-21T05:32:29.406Z,86.45
2022-09-21T05:33:29.499Z,86.35
2022-09-21T05:34:33.057Z,86.10
2022-09-21T05:35:29.688Z,86.00
2022-09-21T05:36:29.729Z,85.89
2022-09-21T05:37:29.805Z,85.89
2022-09-21T05:38:29.885Z,86.00
2022-09-21T05:39:29.989Z,86.00
2022-09-21T05:40:30.228Z,86.10
2022-09-21T05:41:30.134Z,85.89
2022-09-21T05:42:30.203Z,85.79
2022-09-21T05:43:30.307Z,85.69
2022-09-21T05:44:30.365Z,85.63
2022-09-21T05:45:30.462Z,85.63
2022-09-21T05:46:30.501Z,85.94
2022-09-21T05:47:30.587Z,85.94
2022-09-21T05:48:30.676Z,86.10
2022-09-21T05:49:30.751Z,86.21
2022-09-21T05:50:30.827Z,86.31
2022-09-21T05:51:30.898Z,86.21
2022-09-21T05:52:30.968Z,86.41
2022-09-21T05:53:31.053Z,86.61
2022-09-21T05:54:31.130Z,86.61
2022-09-21T05:55:31.232Z,86.93
2022-09-21T05:56:31.299Z,87.13
2022-09-21T05:57:31.408Z,87.24
2022-09-21T05:58:31.474Z,87.34
2022-09-21T05:59:31.565Z,87.24
2022-09-21T06:00:31.909Z,87.19
2022-09-21T06:01:31.780Z,87.19
2022-09-21T06:02:31.821Z,87.30
2022-09-21T06:03:31.887Z,87.30
2022-09-21T06:04:31.959Z,87.40
2022-09-21T06:05:32.064Z,87.60
2022-09-21T06:06:32.128Z,87.51
2022-09-21T06:07:32.216Z,87.30
2022-09-21T06:08:32.282Z,87.19
2022-09-21T06:09:32.373Z,87.09
2022-09-21T06:10:32.459Z,87.26
2022-09-21T06:11:32.524Z,87.36
2022-09-21T06:12:32.568Z,87.46
2022-09-21T06:13:32.653Z,87.57
2022-09-21T06:14:32.723Z,87.57
2022-09-21T06:15:32.843Z,87.67
2022-09-21T06:16:32.943Z,87.57
2022-09-21T06:17:33.000Z,87.46
2022-09-21T06:18:33.050Z,87.26
2022-09-21T06:19:33.153Z,87.01
2022-09-21T06:20:33.264Z,86.91
2022-09-21T06:21:33.318Z,86.80
2022-09-21T06:22:33.375Z,86.80
2022-09-21T06:23:33.465Z,86.91
2022-09-21T06:24:33.546Z,86.87
2022-09-21T06:25:33.662Z,86.87
2022-09-21T06:26:33.691Z,86.87
2022-09-21T06:27:33.786Z,86.87
2022-09-21T06:28:33.855Z,86.87
2022-09-21T06:29:33.944Z,86.83
2022-09-21T06:30:34.129Z,86.83
2022-09-21T06:31:34.129Z,86.72
2022-09-21T06:32:34.193Z,86.48
2022-09-21T06:33:34.277Z,85.99
2022-09-21T06:34:34.333Z,83.72
2022-09-21T06:35:34.462Z,80.25
2022-09-21T06:36:34.502Z,77.96
2022-09-21T06:37:34.570Z,75.88
2022-09-21T06:38:34.627Z,70.48
2022-09-21T06:39:34.731Z,68.38
2022-09-21T06:40:34.995Z,67.10
2022-09-21T06:41:34.878Z,65.18
2022-09-21T06:42:34.955Z,63.73
2022-09-21T06:43:35.026Z,62.53
2022-09-21T06:44:35.117Z,61.96
2022-09-21T06:45:35.264Z,60.06
2022-09-21T06:46:35.268Z,57.71
2022-09-21T06:47:35.359Z,57.08
2022-09-21T06:48:35.431Z,55.97
2022-09-21T06:49:39.170Z,56.75
2022-09-21T06:50:35.601Z,54.91
2022-09-21T06:51:35.670Z,54.79
2022-09-21T06:52:35.730Z,53.72
2022-09-21T06:53:35.809Z,52.72
2022-09-21T06:54:35.866Z,52.51
2022-09-21T06:55:35.970Z,53.20
2022-09-21T06:56:36.021Z,52.09
2022-09-21T06:57:36.097Z,52.37
2022-09-21T06:58:36.167Z,51.84
2022-09-21T06:59:36.245Z,50.91
2022-09-21T07:00:36.331Z,51.72
2022-09-21T07:01:36.529Z,51.11
2022-09-21T07:02:36.446Z,50.56
2022-09-21T07:03:36.519Z,49.54
2022-09-21T07:04:36.608Z,49.79
2022-09-21T07:05:36.699Z,48.76
2022-09-21T07:06:36.745Z,48.39
2022-09-21T07:07:36.820Z,47.37
2022-09-21T07:10:37.133Z,45.17
2022-09-21T07:11:37.185Z,43.87
2022-09-21T07:12:37.271Z,43.99
2022-09-21T07:13:37.366Z,44.29
2022-09-21T07:14:37.457Z,44.69
2022-09-21T07:15:37.547Z,44.81
2022-09-21T07:16:37.623Z,44.61
2022-09-21T07:17:37.687Z,45.29
2022-09-21T07:18:43.642Z,44.94
2022-09-21T07:19:37.889Z,44.31
2022-09-21T07:20:38.086Z,42.77
2022-09-21T07:21:38.046Z,42.07
2022-09-21T07:22:38.114Z,42.59
2022-09-21T07:23:38.210Z,43.07
2022-09-21T07:24:38.305Z,43.44
2022-09-21T07:25:38.420Z,42.31
2022-09-21T07:26:38.477Z,41.17
2022-09-21T07:27:38.550Z,40.74
2022-09-21T07:28:38.638Z,40.03
2022-09-21T07:29:38.718Z,39.93
2022-09-21T07:30:38.788Z,40.23
2022-09-21T07:31:38.878Z,39.51
2022-09-21T07:32:38.902Z,39.59
2022-09-21T07:33:38.973Z,38.68
2022-09-21T07:34:39.058Z,38.60
2022-09-21T07:35:39.158Z,39.40
2022-09-21T07:36:39.260Z,38.68
2022-09-21T07:37:39.281Z,38.57
2022-09-21T07:38:39.373Z,38.15
2022-09-21T07:39:39.479Z,37.94
2022-09-21T07:40:39.591Z,36.63
2022-09-21T07:41:39.615Z,37.24
2022-09-21T07:42:39.707Z,37.23
2022-09-21T07:43:39.782Z,37.43
2022-09-21T07:44:39.868Z,37.05
2022-09-21T07:45:39.993Z,37.21
2022-09-21T07:46:44.399Z,36.70
2022-09-21T07:47:40.096Z,36.00
2022-09-21T07:48:40.145Z,35.81
2022-09-21T07:49:40.226Z,36.46
2022-09-21T07:50:40.314Z,37.05
2022-09-21T07:51:40.393Z,37.21
2022-09-21T07:52:40.471Z,36.60
2022-09-21T07:53:40.551Z,35.79
2022-09-21T07:54:40.603Z,35.79
2022-09-21T07:55:40.710Z,35.48
2022-09-21T07:56:40.753Z,35.38
2022-09-21T07:57:40.833Z,35.48
2022-09-21T07:58:40.919Z,35.97
2022-09-21T07:59:40.994Z,35.28
2022-09-21T08:00:41.185Z,35.96
2022-09-21T08:01:41.161Z,35.17
2022-09-21T08:02:46.598Z,35.05
2022-09-21T08:03:41.312Z,35.25
2022-09-21T08:04:41.399Z,34.95
2022-09-21T08:05:41.519Z,35.05
2022-09-21T08:06:41.564Z,35.23
2022-09-21T08:07:41.641Z,35.13
2022-09-21T08:08:41.732Z,35.11
2022-09-21T08:09:41.824Z,34.51
2022-09-21T08:10:41.925Z,34.22
2022-09-21T08:11:42.000Z,34.27
2022-09-21T08:12:42.090Z,34.77
2022-09-21T08:13:42.167Z,35.48
2022-09-21T08:14:42.218Z,35.89
2022-09-21T08:15:49.845Z,35.89
2022-09-21T08:16:42.402Z,36.29
2022-09-21T08:17:42.449Z,35.88
2022-09-21T08:18:42.545Z,35.46
2022-09-21T08:19:42.644Z,35.74
2022-09-21T08:20:42.706Z,36.13
2022-09-21T08:21:42.787Z,36.02
2022-09-21T08:22:42.882Z,34.80
2022-09-21T08:23:43.018Z,34.70
2022-09-21T08:24:43.023Z,34.20
2022-09-21T08:25:43.114Z,34.31
2022-09-21T08:26:43.161Z,34.86
2022-09-21T08:27:43.254Z,36.04
2022-09-21T08:28:43.345Z,35.76
2022-09-21T08:29:43.435Z,35.44
2022-09-21T08:30:43.525Z,35.43
2022-09-21T08:31:43.734Z,35.11
2022-09-21T08:32:51.935Z,34.22
2022-09-21T08:33:43.755Z,34.11
2022-09-21T08:34:43.804Z,33.72
2022-09-21T08:35:43.895Z,34.61
2022-09-21T08:36:43.939Z,34.78
2022-09-21T08:37:44.036Z,34.16
2022-09-21T08:38:44.109Z,34.16
2022-09-21T08:39:44.202Z,33.56
2022-09-21T08:40:44.435Z,33.18
2022-09-21T08:41:44.395Z,33.46
2022-09-21T08:42:47.576Z,32.95
2022-09-21T08:43:44.568Z,32.94
2022-09-21T08:44:44.610Z,32.23
2022-09-21T08:45:44.709Z,32.04
2022-09-21T08:46:44.873Z,32.23
2022-09-21T08:47:44.847Z,32.03
2022-09-21T08:48:44.921Z,31.32
2022-09-21T08:49:45.003Z,31.52
2022-09-21T08:50:45.064Z,31.81
2022-09-21T08:51:45.122Z,31.81
2022-09-21T08:52:47.494Z,31.32
2022-09-21T08:53:45.271Z,31.42
2022-09-21T08:54:45.331Z,31.52
2022-09-21T08:55:45.449Z,32.01
2022-09-21T08:57:03.858Z,31.71
2022-09-21T08:57:45.578Z,32.10
2022-09-21T08:58:45.635Z,32.34
2022-09-21T08:59:45.723Z,32.95
2022-09-21T09:00:45.878Z,34.36
2022-09-21T09:01:45.924Z,33.87
2022-09-21T09:02:45.967Z,33.97
2022-09-21T09:03:46.016Z,33.48
2022-09-21T09:04:46.090Z,33.85
2022-09-21T09:05:46.196Z,32.79
2022-09-21T09:06:46.253Z,33.89
2022-09-21T09:07:46.337Z,34.30
2022-09-21T09:08:46.412Z,34.90
2022-09-21T09:09:46.499Z,35.13
2022-09-21T09:10:46.623Z,35.84
2022-09-21T09:11:46.671Z,35.92
2022-09-21T09:12:46.748Z,35.49
2022-09-21T09:13:46.839Z,35.10
2022-09-21T09:14:46.915Z,35.49
2022-09-21T09:15:47.101Z,35.10
2022-09-21T09:16:47.100Z,34.89
2022-09-21T09:17:47.152Z,34.39
2022-09-21T09:18:47.227Z,33.89
2022-09-21T09:19:47.317Z,33.69
2022-09-21T09:20:47.443Z,33.49
2022-09-21T09:21:47.486Z,33.51
2022-09-21T09:22:47.562Z,33.80
2022-09-21T09:23:47.649Z,33.59
2022-09-21T09:24:47.748Z,33.44
2022-09-21T09:25:47.820Z,33.75
2022-09-21T09:26:47.909Z,34.23
2022-09-21T09:27:47.952Z,33.43
2022-09-21T09:28:52.687Z,33.82
2022-09-21T09:29:48.093Z,33.91
2022-09-21T09:30:48.213Z,32.93
2022-09-21T09:31:48.305Z,34.38
2022-09-21T09:32:48.334Z,35.50
2022-09-21T09:33:48.412Z,35.96
2022-09-21T09:34:48.509Z,36.02
2022-09-21T09:35:48.623Z,34.63
2022-09-21T09:37:01.024Z,34.53
2022-09-21T09:37:48.755Z,33.92
2022-09-21T09:38:48.851Z,33.80
2022-09-21T09:39:48.939Z,33.80
2022-09-21T09:40:49.108Z,33.82
2022-09-21T09:41:49.108Z,33.33
2022-09-21T09:42:49.203Z,33.92
2022-09-21T09:43:49.276Z,33.13
2022-09-21T09:44:49.354Z,33.39
2022-09-21T09:45:49.425Z,32.71
2022-09-21T09:46:49.530Z,34.51
2022-09-21T09:47:49.549Z,34.25
2022-09-21T09:48:53.888Z,34.34
2022-09-21T09:49:49.697Z,35.46
2022-09-21T09:50:49.807Z,35.76
2022-09-21T09:51:49.852Z,35.68
2022-09-21T09:52:49.963Z,36.17
2022-09-21T09:53:50.020Z,35.46
2022-09-21T09:54:50.089Z,34.08
2022-09-21T09:55:50.178Z,35.46
2022-09-21T09:56:50.273Z,35.00
2022-09-21T09:57:50.344Z,36.79
2022-09-21T09:58:50.420Z,38.78
2022-09-21T09:59:54.181Z,38.19
2022-09-21T10:00:50.598Z,39.06
2022-09-21T10:01:50.709Z,37.26
2022-09-21T10:02:50.736Z,37.82
2022-09-21T10:03:50.842Z,36.83
2022-09-21T10:04:50.856Z,36.34
2022-09-21T10:05:50.957Z,36.16
2022-09-21T10:06:51.030Z,36.87
2022-09-21T10:07:51.116Z,36.77
2022-09-21T10:08:51.196Z,37.24
2022-09-21T10:09:51.265Z,37.05
2022-09-21T10:10:51.359Z,36.36
2022-09-21T10:11:51.403Z,36.55
2022-09-21T10:12:51.478Z,36.61
2022-09-21T10:13:51.531Z,36.52
2022-09-21T10:14:51.606Z,37.32
2022-09-21T10:15:51.754Z,36.82
2022-09-21T10:16:51.780Z,36.66
2022-09-21T10:17:51.862Z,38.50
2022-09-21T10:18:51.939Z,38.95
2022-09-21T10:19:52.027Z,40.50
2022-09-21T10:20:52.137Z,41.91
2022-09-21T10:21:52.345Z,43.23
2022-09-21T10:22:52.292Z,43.23
2022-09-21T10:23:52.337Z,43.90
2022-09-21T10:24:52.512Z,42.89
2022-09-21T10:25:52.525Z,42.59
2022-09-21T10:26:52.604Z,42.49
2022-09-21T10:27:52.677Z,42.59
2022-09-21T10:28:52.749Z,42.51
2022-09-21T10:29:52.848Z,43.90
2022-09-21T10:30:52.987Z,43.25
2022-09-21T10:31:53.009Z,44.09
2022-09-21T10:32:53.084Z,44.63
2022-09-21T10:33:53.174Z,45.67
2022-09-21T10:34:53.269Z,46.39
2022-09-21T10:35:53.377Z,47.31
2022-09-21T10:36:53.450Z,48.04
2022-09-21T10:37:53.547Z,48.44
2022-09-21T10:38:53.649Z,48.63
2022-09-21T10:39:53.693Z,50.96
2022-09-21T10:40:53.779Z,50.96
2022-09-21T10:41:53.830Z,51.39
2022-09-21T10:42:53.901Z,51.29
2022-09-21T10:43:53.949Z,51.69
2022-09-21T10:44:54.021Z,50.99
2022-09-21T10:45:54.279Z,50.86
2022-09-21T10:46:54.227Z,50.04
2022-09-21T10:47:54.260Z,49.26
2022-09-21T10:48:54.405Z,50.61
2022-09-21T10:49:54.408Z,50.93
2022-09-21T10:50:54.495Z,52.77
2022-09-21T10:51:54.604Z,53.14
2022-09-21T10:52:54.622Z,53.72
2022-09-21T10:53:54.756Z,51.21
2022-09-21T10:54:54.786Z,52.51
2022-09-21T10:56:11.881Z,51.59
2022-09-21T10:56:54.928Z,51.89
2022-09-21T10:57:54.975Z,51.99
2022-09-21T10:58:55.053Z,51.42
2022-09-21T10:59:55.099Z,52.12
2022-09-21T11:00:55.190Z,52.59
2022-09-21T11:01:55.284Z,52.29
2022-09-21T11:02:55.443Z,52.57
2022-09-21T11:03:55.460Z,52.14
2022-09-21T11:04:55.486Z,50.74
2022-09-21T11:05:55.572Z,50.44
2022-09-21T11:06:55.618Z,51.34
2022-09-21T11:07:55.676Z,51.32
2022-09-21T11:08:55.929Z,50.49
2022-09-21T11:09:55.818Z,49.79
2022-09-21T11:10:55.932Z,49.21
2022-09-21T11:11:55.987Z,49.01
2022-09-21T11:12:56.071Z,49.31
2022-09-21T11:13:56.154Z,48.81
2022-09-21T11:14:56.255Z,48.51
2022-09-21T11:15:56.446Z,49.51
2022-09-21T11:16:56.418Z,49.69
2022-09-21T11:17:56.480Z,48.99
2022-09-21T11:18:56.584Z,48.66
2022-09-21T11:19:56.646Z,48.64
2022-09-21T11:20:56.953Z,47.04
2022-09-21T11:21:56.815Z,47.94
2022-09-21T11:22:57.804Z,47.92
2022-09-21T11:23:56.993Z,47.44
2022-09-21T11:24:57.091Z,47.76
2022-09-21T11:25:57.185Z,47.58
2022-09-21T11:26:57.266Z,48.79
2022-09-21T11:27:57.330Z,47.41
2022-09-21T11:28:57.448Z,48.01
2022-09-21T11:29:57.489Z,46.30
2022-09-21T11:30:57.630Z,47.11
2022-09-21T11:31:58.268Z,46.91
2022-09-21T11:32:57.735Z,47.11
2022-09-21T11:33:57.839Z,46.68
2022-09-21T11:34:57.906Z,47.49
2022-09-21T11:35:57.990Z,47.88
2022-09-21T11:36:58.066Z,47.69
2022-09-21T11:37:58.150Z,48.08
2022-09-21T11:38:58.246Z,47.88
2022-09-21T11:39:58.327Z,48.58
2022-09-21T11:40:58.421Z,47.99
2022-09-21T11:41:58.479Z,47.49
2022-09-21T11:42:58.577Z,48.11
2022-09-21T11:44:01.719Z,48.41
2022-09-21T11:44:58.729Z,49.31
2022-09-21T11:45:58.934Z,48.91
2022-09-21T11:46:58.877Z,48.71
2022-09-21T11:47:58.945Z,48.91
2022-09-21T11:48:59.046Z,48.31
2022-09-21T11:50:13.292Z,48.71
2022-09-21T11:50:59.228Z,48.93
2022-09-21T11:51:59.600Z,49.04
2022-09-21T11:52:59.385Z,49.33
2022-09-21T11:53:59.445Z,49.63
2022-09-21T11:54:59.537Z,49.43
2022-09-21T11:55:59.617Z,49.11
2022-09-21T11:56:59.700Z,48.51
2022-09-21T11:57:59.765Z,48.13
2022-09-21T11:58:59.878Z,48.66
2022-09-21T11:59:59.920Z,49.48
2022-09-21T12:01:00.050Z,49.96
2022-09-21T12:02:00.219Z,49.16
2022-09-21T12:03:00.180Z,49.68
2022-09-21T12:04:00.246Z,49.78
2022-09-21T12:05:00.351Z,49.58
2022-09-21T12:06:00.441Z,49.58
2022-09-21T12:07:00.513Z,49.28
2022-09-21T12:08:00.579Z,48.68
2022-09-21T12:09:00.655Z,48.98
2022-09-21T12:10:00.737Z,48.68
2022-09-21T12:11:00.832Z,48.18
2022-09-21T12:12:00.893Z,48.16
2022-09-21T12:13:00.990Z,48.16
2022-09-21T12:14:01.061Z,48.66
2022-09-21T12:15:01.202Z,48.18
2022-09-21T12:16:01.261Z,48.98
2022-09-21T12:17:01.420Z,48.28
2022-09-21T12:18:01.423Z,47.88
2022-09-21T12:19:01.517Z,47.97
2022-09-21T12:20:01.599Z,47.97
2022-09-21T12:21:01.683Z,47.67
2022-09-21T12:22:01.727Z,48.38
2022-09-21T12:23:01.806Z,49.01
2022-09-21T12:24:01.873Z,48.50
2022-09-21T12:25:01.970Z,48.98
2022-09-21T12:26:02.074Z,48.28
2022-09-21T12:27:02.144Z,48.18
2022-09-21T12:28:02.214Z,48.08
2022-09-21T12:29:02.294Z,47.77
2022-09-21T12:30:02.358Z,47.77
2022-09-21T12:31:02.547Z,45.87
2022-09-21T12:32:02.540Z,46.67
2022-09-21T12:33:02.634Z,46.47
2022-09-21T12:34:02.700Z,47.30
2022-09-21T12:35:02.815Z,47.02
2022-09-21T12:36:02.923Z,47.34
2022-09-21T12:37:02.991Z,48.14
2022-09-21T12:38:03.049Z,47.85
2022-09-21T12:39:03.137Z,47.34
2022-09-21T12:40:03.270Z,47.94
2022-09-21T12:41:03.316Z,48.02
2022-09-21T12:42:03.372Z,48.02
2022-09-21T12:43:03.462Z,47.82
2022-09-21T12:44:03.543Z,47.62
2022-09-21T12:45:03.645Z,47.92
2022-09-21T12:46:03.800Z,47.42
2022-09-21T12:47:03.793Z,46.92
2022-09-21T12:48:03.875Z,47.14
2022-09-21T12:49:03.931Z,48.75
2022-09-21T12:50:03.991Z,48.65
2022-09-21T12:51:06.182Z,49.15
2022-09-21T12:52:04.153Z,46.56
2022-09-21T12:53:04.406Z,47.89
2022-09-21T12:54:04.287Z,47.41
2022-09-21T12:55:04.388Z,47.71